Time;durP1;ratioP1;P1;durP2;ratioP2;P2;SDS_P1;SDS_P2;PMS_P1;PMS_P2;Temp;Humidity;BMP_temperature;BMP_pressure;BME280_temperature;BME280_humidity;BME280_pressure;Samples;Min_cycle;Max_cycle;Signal;HPM_P1;HPM_P2
2021/10/23 00:01:22;;;;;;;0.90;0.60;;;7.10;99.90;;;;;;5002199;23;20490;-52
2021/10/23 00:03:48;;;;;;;2.13;0.80;;;7.10;99.90;;;;;;5000066;28;20760;-51
2021/10/23 00:06:15;;;;;;;4.43;0.93;;;7.10;99.90;;;;;;5007101;23;20498;-47
2021/10/23 00:08:43;;;;;;;3.30;1.00;;;7.10;99.90;;;;;;4999843;28;20455;-53
2021/10/23 00:11:13;;;;;;;2.90;1.27;;;7.10;99.90;;;;;;5006751;23;20478;-58
2021/10/23 00:13:42;;;;;;;5.33;1.03;;;7.10;99.90;;;;;;5000026;28;20433;-54
2021/10/23 00:16:09;;;;;;;4.87;1.20;;;7.10;99.90;;;;;;5006187;23;20499;-56
2021/10/23 00:18:36;;;;;;;6.80;1.43;;;7.00;99.90;;;;;;4998985;28;20450;-53
2021/10/23 00:21:02;;;;;;;1.50;0.70;;;7.00;99.90;;;;;;5006120;23;20518;-53
2021/10/23 00:23:29;;;;;;;1.30;0.70;;;6.90;99.90;;;;;;4998332;28;20466;-51
2021/10/23 00:25:57;;;;;;;5.20;1.17;;;7.00;99.90;;;;;;5005866;23;20486;-53
2021/10/23 00:28:24;;;;;;;4.57;0.83;;;7.00;99.90;;;;;;4998992;28;20466;-55
2021/10/23 00:31:04;;;;;;;1.67;0.80;;;7.00;99.90;;;;;;5021280;23;21385;-52
2021/10/23 00:33:31;;;;;;;14.10;2.70;;;7.00;99.90;;;;;;4998986;28;20442;-53
2021/10/23 00:35:58;;;;;;;1.40;1.20;;;7.00;99.90;;;;;;5020838;23;20480;-56
2021/10/23 00:38:25;;;;;;;2.23;0.70;;;7.00;99.90;;;;;;4998624;28;20427;-56
2021/10/23 00:40:52;;;;;;;9.30;1.83;;;7.00;99.90;;;;;;5007028;23;20443;-49
2021/10/23 00:43:21;;;;;;;6.90;1.20;;;7.00;99.90;;;;;;4998234;28;20457;-54
2021/10/23 00:45:48;;;;;;;3.87;0.90;;;7.00;99.90;;;;;;4999359;28;20443;-50
2021/10/23 00:48:15;;;;;;;3.33;1.00;;;7.00;99.90;;;;;;5006360;23;20513;-53
2021/10/23 00:50:42;;;;;;;1.20;0.90;;;7.00;99.90;;;;;;4999126;28;20470;-58
2021/10/23 00:53:09;;;;;;;3.67;0.90;;;7.00;99.90;;;;;;5021786;23;20514;-56
2021/10/23 00:55:35;;;;;;;1.27;0.87;;;7.00;99.90;;;;;;4999203;28;20466;-51
2021/10/23 00:58:03;;;;;;;2.33;1.00;;;6.90;99.90;;;;;;5006400;23;20487;-52
2021/10/23 01:00:31;;;;;;;1.47;0.83;;;6.90;99.90;;;;;;4998407;28;20491;-54
2021/10/23 01:02:58;;;;;;;1.50;0.80;;;6.90;99.90;;;;;;5005986;23;20474;-50
2021/10/23 01:05:25;;;;;;;3.03;0.80;;;6.90;99.90;;;;;;4998271;28;20451;-54
2021/10/23 01:07:53;;;;;;;2.43;0.90;;;6.90;99.90;;;;;;5005667;23;20979;-54
2021/10/23 01:10:19;;;;;;;4.93;1.00;;;6.90;99.90;;;;;;4997881;28;20455;-54
2021/10/23 01:12:47;;;;;;;1.70;0.83;;;6.80;99.90;;;;;;5005151;23;20502;-48
2021/10/23 01:15:22;;;;;;;2.20;1.27;;;6.90;99.90;;;;;;5035908;23;20498;-53
2021/10/23 01:17:51;;;;;;;1.40;0.87;;;6.80;99.90;;;;;;4998318;28;20466;-55
2021/10/23 01:20:21;;;;;;;1.70;1.00;;;6.80;99.90;;;;;;5020330;23;20867;-56
2021/10/23 01:22:49;;;;;;;1.47;0.70;;;6.80;99.90;;;;;;4998049;28;20471;-57
2021/10/23 01:25:16;;;;;;;1.43;0.90;;;6.80;99.90;;;;;;5005617;23;20514;-57
2021/10/23 01:27:43;;;;;;;6.60;0.80;;;6.80;99.90;;;;;;4997625;28;20478;-52
2021/10/23 01:32:53;;;;;;;6.60;1.33;;;6.90;99.90;;;;;;4996492;28;20522;-53
2021/10/23 01:35:25;;;;;;;1.20;0.80;;;6.80;99.90;;;;;;5012266;23;20463;-54
2021/10/23 01:37:54;;;;;;;0.90;0.63;;;6.80;99.90;;;;;;4997928;28;20525;-56
2021/10/23 01:40:24;;;;;;;5.00;1.03;;;6.90;99.90;;;;;;5020632;23;20565;-53
2021/10/23 01:42:52;;;;;;;1.20;0.80;;;6.80;99.90;;;;;;4978296;28;20456;-57
2021/10/23 01:45:21;;;;;;;2.83;1.07;;;6.90;99.90;;;;;;4982077;23;20505;-53
2021/10/23 01:47:48;;;;;;;3.53;1.40;;;6.90;99.90;;;;;;4939985;29;20469;-55
2021/10/23 01:52:43;;;;;;;14.30;2.50;;;6.90;99.90;;;;;;4977641;23;20479;-51
2021/10/23 01:55:10;;;;;;;6.03;1.20;;;6.90;99.90;;;;;;4977882;29;20232;-51
2021/10/23 01:57:38;;;;;;;3.33;1.57;;;6.90;99.90;;;;;;4999704;23;20562;-52
2021/10/23 02:00:06;;;;;;;6.10;1.00;;;6.90;99.90;;;;;;4977269;29;20475;-54
2021/10/23 02:02:34;;;;;;;5.37;0.73;;;6.90;99.90;;;;;;4984411;23;20483;-54
2021/10/23 02:05:02;;;;;;;4.00;1.17;;;6.90;99.90;;;;;;4977736;29;20447;-54
2021/10/23 02:07:29;;;;;;;2.70;1.13;;;6.90;99.90;;;;;;4999131;23;20495;-51
2021/10/23 02:09:57;;;;;;;2.83;1.50;;;6.80;99.90;;;;;;4977842;29;20444;-55
2021/10/23 02:12:25;;;;;;;9.50;1.40;;;6.80;99.90;;;;;;5065897;23;20491;-50
2021/10/23 02:14:51;;;;;;;2.40;1.00;;;6.80;99.90;;;;;;4977903;29;20470;-54
2021/10/23 02:17:19;;;;;;;3.57;1.53;;;6.80;99.90;;;;;;4977597;23;20521;-55
2021/10/23 02:19:47;;;;;;;2.67;0.90;;;6.80;99.90;;;;;;4958305;29;20520;-55
2021/10/23 02:22:14;;;;;;;3.87;0.87;;;6.80;99.90;;;;;;4971253;23;20479;-52
2021/10/23 02:24:41;;;;;;;5.63;1.40;;;6.80;99.90;;;;;;4977384;29;20444;-50
2021/10/23 02:27:09;;;;;;;1.00;0.70;;;6.80;99.90;;;;;;4984836;23;20460;-56
2021/10/23 02:29:36;;;;;;;6.97;1.50;;;6.80;99.90;;;;;;4976958;29;20447;-54
2021/10/23 02:32:03;;;;;;;5.13;0.90;;;6.80;99.90;;;;;;4984563;23;20464;-55
2021/10/23 02:34:30;;;;;;;2.30;0.90;;;6.80;99.90;;;;;;4977619;29;20424;-53
2021/10/23 02:39:35;;;;;;;3.03;0.87;;;6.70;99.90;;;;;;4982785;23;20499;-57
2021/10/23 02:42:02;;;;;;;9.07;1.53;;;6.70;99.90;;;;;;4977809;28;20432;-56
2021/10/23 02:44:31;;;;;;;8.07;1.17;;;6.70;99.90;;;;;;5014563;23;20499;-54
2021/10/23 02:46:58;;;;;;;4.43;1.13;;;6.70;99.90;;;;;;4977419;29;20499;-54
2021/10/23 02:49:25;;;;;;;16.57;1.60;;;6.70;99.90;;;;;;4999262;23;20496;-56
2021/10/23 02:51:56;;;;;;;2.47;2.27;;;6.70;99.90;;;;;;4976939;29;20491;-55
2021/10/23 02:54:25;;;;;;;5.00;0.93;;;6.70;99.90;;;;;;4972667;23;20508;-52
2021/10/23 02:56:55;;;;;;;3.33;1.33;;;6.70;99.90;;;;;;4939353;29;20442;-51
2021/10/23 02:59:23;;;;;;;1.93;1.60;;;6.60;99.90;;;;;;4975933;23;20497;-54
2021/10/23 03:01:52;;;;;;;5.53;0.90;;;6.70;99.90;;;;;;4939165;29;20450;-53
2021/10/23 03:04:19;;;;;;;5.73;1.10;;;6.70;99.90;;;;;;4981104;23;20503;-54
2021/10/23 03:06:46;;;;;;;1.40;0.83;;;6.70;99.90;;;;;;4977411;29;20515;-55
2021/10/23 03:09:13;;;;;;;10.00;1.90;;;6.70;99.90;;;;;;4984775;23;20486;-59
2021/10/23 03:11:40;;;;;;;4.43;1.70;;;6.70;99.90;;;;;;4977905;28;20479;-54
2021/10/23 03:14:08;;;;;;;3.67;1.30;;;6.70;99.90;;;;;;4974188;23;20489;-58
2021/10/23 03:16:37;;;;;;;11.23;2.70;;;6.70;99.90;;;;;;4939374;29;20442;-58
2021/10/23 03:19:08;;;;;;;1.57;1.07;;;6.80;99.90;;;;;;4953582;23;20681;-52
2021/10/23 03:21:35;;;;;;;2.93;1.50;;;6.80;99.90;;;;;;4976856;29;20428;-55
2021/10/23 03:24:03;;;;;;;4.73;1.37;;;6.80;99.90;;;;;;4983631;23;20471;-54
2021/10/23 03:26:30;;;;;;;1.60;0.70;;;6.70;99.90;;;;;;4984110;23;20562;-54
2021/10/23 03:28:57;;;;;;;8.90;1.60;;;6.70;99.90;;;;;;4976267;28;20543;-53
2021/10/23 03:31:24;;;;;;;3.20;1.00;;;6.70;99.90;;;;;;4984338;23;20490;-53
2021/10/23 03:33:50;;;;;;;1.27;0.73;;;6.70;99.90;;;;;;4978125;28;20530;-54
2021/10/23 03:36:21;;;;;;;4.40;0.60;;;6.70;99.90;;;;;;5017565;23;20471;-53
2021/10/23 03:38:47;;;;;;;4.70;1.50;;;6.70;99.90;;;;;;4980102;28;20471;-52
2021/10/23 03:41:14;;;;;;;1.47;1.00;;;6.70;99.90;;;;;;5002683;23;20495;-56
2021/10/23 03:43:41;;;;;;;4.93;1.20;;;6.80;99.90;;;;;;4980424;29;20499;-55
2021/10/23 03:46:08;;;;;;;4.40;1.40;;;6.80;99.90;;;;;;5002352;23;20487;-55
2021/10/23 03:48:35;;;;;;;3.57;1.20;;;6.80;99.90;;;;;;4980132;28;20451;-56
2021/10/23 03:51:03;;;;;;;4.50;1.30;;;6.80;99.90;;;;;;5002344;23;20505;-50
2021/10/23 03:53:33;;;;;;;2.43;0.80;;;6.80;99.90;;;;;;4980437;29;20491;-53
2021/10/23 03:56:01;;;;;;;9.53;1.63;;;6.80;99.90;;;;;;4988101;23;20432;-54
2021/10/23 03:58:28;;;;;;;5.80;1.40;;;6.80;99.90;;;;;;4979464;28;20487;-55
2021/10/23 04:00:58;;;;;;;4.70;0.80;;;6.80;99.90;;;;;;4980626;29;20527;-55
2021/10/23 04:03:25;;;;;;;3.13;0.97;;;6.80;99.90;;;;;;4987125;23;20503;-54
2021/10/23 04:05:55;;;;;;;1.50;0.80;;;6.80;99.90;;;;;;4979772;29;20435;-55
2021/10/23 04:08:22;;;;;;;1.60;0.97;;;6.80;99.90;;;;;;4986989;23;20514;-52
2021/10/23 04:10:50;;;;;;;4.30;1.27;;;6.80;99.90;;;;;;4980080;29;20432;-55
2021/10/23 04:13:17;;;;;;;8.50;1.43;;;6.80;99.90;;;;;;4986809;23;20528;-56
2021/10/23 04:15:49;;;;;;;5.67;1.30;;;6.80;99.90;;;;;;4979607;29;20456;-53
2021/10/23 04:18:16;;;;;;;5.23;0.87;;;6.80;99.90;;;;;;4986464;23;20479;-56
2021/10/23 04:20:42;;;;;;;2.93;1.47;;;6.80;99.90;;;;;;4979341;29;20510;-52
2021/10/23 04:23:09;;;;;;;11.73;1.70;;;6.90;99.90;;;;;;5016700;23;20511;-54
2021/10/23 04:25:35;;;;;;;2.23;1.17;;;6.90;99.90;;;;;;4979437;29;20452;-56
2021/10/23 04:28:06;;;;;;;2.50;0.70;;;6.90;99.90;;;;;;4986437;23;20511;-52
2021/10/23 04:30:33;;;;;;;2.70;1.27;;;7.00;99.90;;;;;;4979376;29;20424;-52
2021/10/23 04:33:01;;;;;;;10.53;1.23;;;7.00;99.90;;;;;;4986033;23;20487;-52
2021/10/23 04:35:28;;;;;;;6.00;0.90;;;7.00;99.90;;;;;;4979209;29;20486;-53
2021/10/23 04:37:58;;;;;;;16.57;1.97;;;6.90;99.90;;;;;;5015710;23;20454;-50
2021/10/23 04:40:25;;;;;;;1.67;0.73;;;6.90;99.90;;;;;;4979090;29;20504;-52
2021/10/23 04:42:52;;;;;;;3.00;1.20;;;6.90;99.90;;;;;;4984096;23;20454;-56
2021/10/23 04:45:23;;;;;;;4.83;0.93;;;6.90;99.90;;;;;;4964946;23;20491;-56
2021/10/23 04:47:56;;;;;;;1.40;1.20;;;6.90;99.90;;;;;;4979321;28;20459;-57
2021/10/23 04:50:25;;;;;;;4.60;0.80;;;6.80;99.90;;;;;;4986582;23;20491;-53
2021/10/23 04:52:52;;;;;;;4.33;1.43;;;6.80;99.90;;;;;;4979075;29;20494;-52
2021/10/23 04:55:20;;;;;;;3.03;1.20;;;6.80;99.90;;;;;;5001475;23;20483;-47
2021/10/23 04:57:53;;;;;;;4.97;1.53;;;6.80;99.90;;;;;;4979275;29;20470;-53
2021/10/23 05:00:22;;;;;;;4.10;1.10;;;6.70;99.90;;;;;;4986573;23;20487;-55
2021/10/23 05:02:49;;;;;;;7.03;1.43;;;6.80;99.90;;;;;;4979073;29;20432;-57
2021/10/23 05:05:15;;;;;;;3.80;1.27;;;6.80;99.90;;;;;;4986897;23;20468;-52
2021/10/23 05:07:42;;;;;;;2.43;1.00;;;6.70;99.90;;;;;;4978732;29;20440;-54
2021/10/23 05:10:13;;;;;;;5.50;1.23;;;6.70;99.90;;;;;;4985937;23;20459;-50
2021/10/23 05:12:40;;;;;;;1.67;1.10;;;6.70;99.90;;;;;;4978684;29;20471;-52
2021/10/23 05:15:08;;;;;;;8.93;1.40;;;6.80;99.90;;;;;;4986291;23;20461;-55
2021/10/23 05:17:36;;;;;;;6.23;1.20;;;6.70;99.90;;;;;;4978674;29;20436;-53
2021/10/23 05:20:09;;;;;;;2.63;1.27;;;6.70;99.90;;;;;;4978552;29;20456;-56
2021/10/23 05:22:35;;;;;;;1.47;0.83;;;6.70;99.90;;;;;;4977545;29;20519;-55
2021/10/23 05:25:03;;;;;;;2.33;0.77;;;6.60;99.90;;;;;;4978391;29;20534;-56
2021/10/23 05:27:31;;;;;;;2.30;1.43;;;6.70;99.90;;;;;;4985453;23;20555;-56
2021/10/23 05:29:58;;;;;;;1.90;1.07;;;6.70;99.90;;;;;;4978707;28;20463;-56
2021/10/23 05:32:25;;;;;;;4.00;0.87;;;6.70;99.90;;;;;;4985418;23;20498;-50
2021/10/23 05:34:54;;;;;;;5.77;1.50;;;6.60;99.90;;;;;;4978795;28;20491;-56
2021/10/23 05:37:20;;;;;;;1.47;0.70;;;6.60;99.90;;;;;;4986073;23;20487;-58
2021/10/23 05:39:48;;;;;;;4.67;1.63;;;6.60;99.90;;;;;;4978301;29;20495;-53
2021/10/23 05:42:15;;;;;;;9.70;1.43;;;6.60;99.90;;;;;;4985378;23;20514;-54
2021/10/23 05:44:41;;;;;;;5.00;1.77;;;6.50;99.90;;;;;;4977984;29;20472;-56
2021/10/23 05:47:09;;;;;;;5.03;0.80;;;6.60;99.90;;;;;;5000502;23;20480;-51
2021/10/23 05:49:36;;;;;;;1.23;0.97;;;6.60;99.90;;;;;;4977978;28;20531;-55
2021/10/23 05:52:05;;;;;;;13.73;2.13;;;6.60;99.90;;;;;;4984684;23;20475;-54
2021/10/23 05:54:37;;;;;;;4.80;1.00;;;6.60;99.90;;;;;;4977677;28;20503;-55
2021/10/23 05:57:05;;;;;;;3.00;1.23;;;6.60;99.90;;;;;;4999697;23;20495;-55
2021/10/23 05:59:32;;;;;;;6.70;1.67;;;6.60;99.90;;;;;;4977341;29;20452;-53
2021/10/23 06:02:11;;;;;;;2.40;0.70;;;6.60;99.90;;;;;;4984821;23;20499;-55
2021/10/23 06:04:38;;;;;;;2.37;1.13;;;6.60;99.90;;;;;;4977612;29;20485;-55
2021/10/23 06:07:07;;;;;;;4.20;0.80;;;6.60;99.90;;;;;;4984930;23;20444;-56
2021/10/23 06:09:34;;;;;;;4.33;2.80;;;6.60;99.90;;;;;;4977243;29;20478;-56
2021/10/23 06:14:35;;;;;;;8.93;2.03;;;6.60;99.90;;;;;;4944674;23;20488;-51
2021/10/23 06:17:01;;;;;;;2.37;0.83;;;6.60;99.90;;;;;;4939532;29;20453;-58
2021/10/23 06:19:29;;;;;;;2.17;0.90;;;6.60;99.90;;;;;;4979456;23;20511;-53
2021/10/23 06:21:56;;;;;;;4.07;2.00;;;6.60;99.90;;;;;;4977600;29;20436;-49
2021/10/23 06:24:24;;;;;;;1.67;1.00;;;6.60;99.90;;;;;;5000331;23;20527;-50
2021/10/23 06:26:54;;;;;;;4.77;1.37;;;6.60;99.90;;;;;;4977852;29;20864;-55
2021/10/23 06:29:21;;;;;;;11.40;1.90;;;6.70;99.90;;;;;;4999656;23;20507;-55
2021/10/23 06:31:50;;;;;;;4.73;1.70;;;6.70;99.90;;;;;;4977477;29;20467;-54
2021/10/23 06:34:18;;;;;;;3.00;1.20;;;6.70;99.90;;;;;;4999702;23;20484;-54
2021/10/23 06:36:46;;;;;;;13.30;1.67;;;6.80;99.90;;;;;;4977390;29;20420;-53
2021/10/23 06:39:13;;;;;;;2.20;1.07;;;6.80;99.90;;;;;;4983863;23;20491;-51
2021/10/23 06:41:41;;;;;;;2.13;1.20;;;6.80;99.90;;;;;;4977584;29;20436;-49
2021/10/23 06:44:08;;;;;;;2.17;1.10;;;6.80;99.90;;;;;;4984133;23;20499;-51
2021/10/23 06:46:35;;;;;;;2.80;1.07;;;6.80;99.90;;;;;;4977428;29;20440;-52
2021/10/23 06:49:03;;;;;;;12.03;1.77;;;6.90;99.90;;;;;;4984230;23;20491;-51
2021/10/23 06:51:33;;;;;;;20.70;2.00;;;6.90;99.90;;;;;;4999892;23;20475;-54
2021/10/23 06:54:01;;;;;;;1.67;0.90;;;6.90;99.90;;;;;;4977005;28;20475;-54
2021/10/23 06:56:29;;;;;;;3.73;1.43;;;7.00;99.90;;;;;;4999082;23;20491;-54
2021/10/23 06:58:58;;;;;;;1.20;0.90;;;7.10;99.90;;;;;;4976968;29;20514;-53
2021/10/23 07:01:26;;;;;;;13.20;2.10;;;7.10;99.90;;;;;;4983275;23;20476;-54
2021/10/23 07:03:55;;;;;;;8.73;1.67;;;7.10;99.90;;;;;;4976849;29;20436;-56
2021/10/23 07:06:22;;;;;;;3.57;1.30;;;7.10;99.90;;;;;;4999199;23;20483;-51
2021/10/23 07:08:50;;;;;;;3.97;1.40;;;7.20;99.90;;;;;;4978574;28;20487;-52
2021/10/23 07:11:19;;;;;;;1.83;0.77;;;7.20;99.90;;;;;;4988149;23;20559;-54
2021/10/23 07:13:46;;;;;;;9.70;1.00;;;7.20;99.90;;;;;;4980854;29;20483;-54
2021/10/23 07:16:14;;;;;;;1.97;0.80;;;7.30;99.90;;;;;;5003430;23;20500;-50
2021/10/23 07:18:41;;;;;;;11.30;2.10;;;7.30;99.90;;;;;;4980428;29;20443;-56
2021/10/23 07:21:11;;;;;;;7.70;1.20;;;7.30;99.90;;;;;;5017647;23;20498;-47
2021/10/23 07:23:39;;;;;;;1.43;1.00;;;7.30;99.90;;;;;;4980763;28;20447;-47
2021/10/23 07:26:07;;;;;;;1.63;1.00;;;7.40;99.90;;;;;;5002222;23;20448;-53
2021/10/23 07:28:36;;;;;;;5.13;1.80;;;7.40;99.90;;;;;;4980693;29;20440;-57
2021/10/23 07:31:04;;;;;;;10.67;2.00;;;7.40;99.90;;;;;;4988993;23;20460;-44
2021/10/23 07:33:33;;;;;;;8.33;1.60;;;7.50;99.90;;;;;;4979614;29;20484;-56
2021/10/23 07:36:00;;;;;;;8.30;1.43;;;7.50;99.90;;;;;;4980910;29;20448;-55
2021/10/23 07:38:27;;;;;;;10.40;1.50;;;7.60;99.90;;;;;;4987797;23;20483;-53
2021/10/23 07:41:02;;;;;;;8.67;1.83;;;7.60;99.90;;;;;;4980714;28;20463;-54
2021/10/23 07:43:28;;;;;;;8.20;0.90;;;7.60;99.90;;;;;;4987711;23;20494;-53
2021/10/23 07:45:59;;;;;;;2.67;1.10;;;7.70;99.90;;;;;;4980480;29;20472;-56
2021/10/23 07:48:27;;;;;;;5.93;1.17;;;7.80;99.90;;;;;;4987674;23;20527;-52
2021/10/23 07:50:58;;;;;;;8.33;1.13;;;7.90;99.90;;;;;;5015824;23;20487;-54
2021/10/23 07:53:44;;;;;;;8.43;1.13;;;8.10;99.90;;;;;;5015963;23;20527;-51
2021/10/23 07:56:11;;;;;;;1.30;0.97;;;8.20;99.90;;;;;;4976573;28;20479;-51
2021/10/23 07:58:39;;;;;;;3.33;1.73;;;8.30;99.90;;;;;;4984277;23;20534;-48
2021/10/23 08:01:08;;;;;;;3.07;1.40;;;8.50;99.90;;;;;;4976849;29;20495;-51
2021/10/23 08:03:35;;;;;;;11.03;1.13;;;8.60;99.90;;;;;;4961994;23;20504;-53
2021/10/23 08:06:03;;;;;;;7.60;1.10;;;8.70;99.90;;;;;;4938188;29;20473;-48
2021/10/23 08:08:29;;;;;;;1.40;0.80;;;8.80;99.90;;;;;;4961381;23;20499;-53
2021/10/23 08:10:58;;;;;;;3.30;1.33;;;8.80;99.90;;;;;;4975333;29;20470;-50
2021/10/23 08:13:25;;;;;;;4.00;1.00;;;8.80;99.90;;;;;;4982474;23;20490;-51
2021/10/23 08:15:53;;;;;;;3.13;1.40;;;8.90;99.90;;;;;;4976211;29;20468;-51
2021/10/23 08:18:20;;;;;;;1.63;1.43;;;9.00;99.90;;;;;;4974399;23;20521;-50
2021/10/23 08:20:47;;;;;;;2.73;1.23;;;9.10;99.90;;;;;;4936915;29;20496;-51
2021/10/23 08:23:15;;;;;;;13.40;1.60;;;9.10;99.90;;;;;;4963050;23;20453;-52
2021/10/23 08:25:42;;;;;;;4.07;1.27;;;9.10;99.90;;;;;;4975160;28;20534;-49
2021/10/23 08:30:37;;;;;;;8.00;2.60;;;9.10;99.90;;;;;;4979418;23;20516;-49
2021/10/23 08:33:04;;;;;;;3.47;1.27;;;9.20;99.90;;;;;;4975495;29;20279;-52
2021/10/23 08:35:33;;;;;;;7.07;1.70;;;9.20;99.90;;;;;;4983781;23;20560;-50
2021/10/23 08:38:00;;;;;;;5.20;1.30;;;9.20;99.90;;;;;;4976554;29;20507;-54
2021/10/23 08:40:28;;;;;;;4.97;1.20;;;9.20;99.90;;;;;;4998199;23;20499;-53
2021/10/23 08:42:57;;;;;;;5.07;1.67;;;9.30;99.90;;;;;;4976543;29;20485;-51
2021/10/23 08:45:25;;;;;;;2.50;1.10;;;9.30;99.90;;;;;;4983829;23;20491;-54
2021/10/23 08:47:51;;;;;;;1.13;0.93;;;9.20;99.90;;;;;;4976918;29;20440;-51
2021/10/23 08:50:21;;;;;;;1.47;0.80;;;9.20;99.90;;;;;;4996746;23;20499;-52
2021/10/23 08:52:48;;;;;;;1.73;0.90;;;9.30;99.90;;;;;;4975086;29;20492;-51
2021/10/23 08:55:17;;;;;;;3.10;1.13;;;9.50;99.90;;;;;;4981078;23;20488;-52
2021/10/23 08:57:45;;;;;;;6.33;1.10;;;9.50;99.90;;;;;;4973924;29;20455;-51
2021/10/23 09:02:53;;;;;;;4.13;0.97;;;9.70;99.90;;;;;;4983469;23;20555;-53
2021/10/23 09:05:20;;;;;;;1.67;1.10;;;9.90;99.90;;;;;;4979498;28;20479;-52
2021/10/23 09:07:50;;;;;;;5.50;1.60;;;10.10;99.90;;;;;;5001333;23;20487;-54
2021/10/23 09:10:24;;;;;;;10.10;1.30;;;10.10;99.90;;;;;;4979446;29;20444;-45
2021/10/23 09:13:02;;;;;;;2.30;1.30;;;10.10;99.90;;;;;;5001702;23;21023;-56
2021/10/23 09:15:33;;;;;;;12.07;1.57;;;10.10;99.90;;;;;;4979492;29;20472;-57
2021/10/23 09:18:00;;;;;;;13.33;1.53;;;10.00;99.90;;;;;;4986409;23;20487;-54
2021/10/23 09:20:26;;;;;;;2.90;0.90;;;10.00;99.90;;;;;;4979742;29;20451;-52
2021/10/23 09:22:55;;;;;;;6.40;1.57;;;9.90;99.90;;;;;;4987416;23;20559;-57
2021/10/23 09:25:24;;;;;;;6.57;1.07;;;9.90;99.90;;;;;;4979648;28;20443;-47
2021/10/23 09:28:03;;;;;;;12.13;1.00;;;9.90;99.90;;;;;;5001155;23;20504;-50
2021/10/23 09:30:35;;;;;;;2.50;1.07;;;9.90;99.90;;;;;;4979440;28;20416;-51
2021/10/23 09:33:06;;;;;;;16.10;1.77;;;9.90;99.90;;;;;;5016229;23;20506;-51
2021/10/23 09:35:35;;;;;;;3.33;1.50;;;10.10;99.90;;;;;;4979502;28;20499;-49
2021/10/23 09:38:02;;;;;;;5.43;1.37;;;10.70;99.90;;;;;;4986498;23;20507;-50
2021/10/23 09:40:31;;;;;;;1.20;0.80;;;11.50;99.90;;;;;;4979002;29;20460;-54
2021/10/23 09:43:12;;;;;;;1.10;0.90;;;12.70;99.90;;;;;;4985760;23;20490;-54
2021/10/23 09:46:00;;;;;;;3.20;1.60;;;13.70;99.90;;;;;;4978714;28;20427;-49
2021/10/23 09:48:29;;;;;;;4.13;1.00;;;14.60;99.90;;;;;;5006323;23;21393;-45
2021/10/23 09:51:09;;;;;;;6.77;1.20;;;15.70;99.90;;;;;;4941238;28;1067971;-48
2021/10/23 09:53:36;;;;;;;5.63;1.70;;;16.30;99.90;;;;;;5007303;23;20243;-50
2021/10/23 09:56:07;;;;;;;5.90;1.67;;;16.70;99.90;;;;;;4977903;28;20456;-51
2021/10/23 09:58:42;;;;;;;3.80;1.30;;;16.90;99.90;;;;;;4984534;23;20465;-47
2021/10/23 10:01:10;;;;;;;4.93;1.37;;;17.20;99.90;;;;;;4984350;23;20487;-46
2021/10/23 10:03:39;;;;;;;2.03;1.00;;;17.70;99.90;;;;;;4976442;28;20463;-51
2021/10/23 10:06:08;;;;;;;2.30;1.20;;;17.40;99.90;;;;;;4983184;23;20518;-52
2021/10/23 10:08:36;;;;;;;3.83;1.27;;;17.40;99.10;;;;;;4976165;29;20451;-51
2021/10/23 10:11:03;;;;;;;3.77;1.83;;;16.80;98.80;;;;;;4983527;23;20558;-50
2021/10/23 10:13:32;;;;;;;5.47;1.17;;;15.90;99.90;;;;;;4976669;29;20468;-50
2021/10/23 10:16:00;;;;;;;4.27;1.70;;;15.00;99.90;;;;;;4998690;23;20491;-49
2021/10/23 10:18:27;;;;;;;3.17;1.20;;;14.30;99.90;;;;;;4976545;29;20420;-45
2021/10/23 10:20:56;;;;;;;2.90;1.30;;;13.80;99.90;;;;;;5013762;23;20488;-47
2021/10/23 10:23:31;;;;;;;3.87;2.80;;;13.30;99.90;;;;;;4977622;29;20460;-44
2021/10/23 10:26:26;;;;;;;6.27;1.33;;;12.70;99.90;;;;;;4999974;23;21062;-46
2021/10/23 10:29:22;;;;;;;8.27;1.93;;;12.50;99.90;;;;;;4977284;28;20448;-47
2021/10/23 10:31:55;;;;;;;6.20;1.93;;;13.60;99.90;;;;;;5014057;23;20498;-49
2021/10/23 10:43:25;;;;;;;4.30;1.57;;;14.90;99.90;;;;;;4997767;23;20486;-47
2021/10/23 10:45:56;;;;;;;6.97;2.00;;;14.80;99.90;;;;;;4976437;29;20837;-46
2021/10/23 10:48:37;;;;;;;6.30;1.87;;;14.50;99.90;;;;;;5059000;23;20482;-53
2021/10/23 10:54:10;;;;;;;8.87;2.30;;;14.10;99.90;;;;;;4996354;23;20503;-48
2021/10/23 10:56:55;;;;;;;6.80;1.33;;;14.10;99.90;;;;;;4984906;23;20467;-51
2021/10/23 10:59:55;;;;;;;2.00;0.90;;;14.40;99.90;;;;;;4955788;29;20457;-48
2021/10/23 11:02:34;;;;;;;1.63;1.03;;;14.50;99.90;;;;;;4984342;23;20725;-51
2021/10/23 11:05:19;;;;;;;9.20;1.90;;;14.30;99.90;;;;;;4976876;29;20435;-50
2021/10/23 11:08:01;;;;;;;4.63;1.43;;;13.90;99.90;;;;;;4983435;23;20491;-50
2021/10/23 11:10:56;;;;;;;4.07;1.10;;;13.50;99.90;;;;;;4974790;28;20447;-48
2021/10/23 11:13:27;;;;;;;4.67;1.60;;;13.30;99.90;;;;;;4998249;23;20495;-54
2021/10/23 11:15:54;;;;;;;3.30;1.67;;;13.10;99.90;;;;;;4976807;29;20471;-51
2021/10/23 11:18:21;;;;;;;3.37;1.33;;;12.80;99.90;;;;;;4998855;23;20488;-46
2021/10/23 11:20:51;;;;;;;5.50;1.80;;;12.60;99.90;;;;;;4976740;29;20483;-49
2021/10/23 11:23:21;;;;;;;7.30;1.50;;;12.50;99.90;;;;;;4998924;23;20491;-46
2021/10/23 11:25:49;;;;;;;3.20;1.43;;;12.40;99.90;;;;;;4976525;29;20857;-50
2021/10/23 11:28:26;;;;;;;6.83;1.87;;;12.30;99.90;;;;;;4998986;23;20491;-50
2021/10/23 11:30:53;;;;;;;6.97;1.63;;;12.20;99.90;;;;;;4976708;29;20464;-51
2021/10/23 11:33:20;;;;;;;9.80;2.03;;;12.20;99.90;;;;;;4983680;23;20440;-47
2021/10/23 11:35:51;;;;;;;14.00;1.87;;;12.30;99.90;;;;;;4976893;29;20475;-52
2021/10/23 11:38:23;;;;;;;2.10;1.50;;;12.40;99.90;;;;;;4984133;23;20439;-52
2021/10/23 11:40:54;;;;;;;2.70;1.87;;;12.50;99.90;;;;;;4956577;29;20460;-48
2021/10/23 11:45:48;;;;;;;34.10;13.83;;;12.30;99.90;;;;;;4997319;23;20534;-44
2021/10/23 11:48:17;;;;;;;2.97;1.60;;;12.30;99.90;;;;;;4976425;29;20495;-53
2021/10/23 11:50:45;;;;;;;10.67;1.67;;;12.40;99.90;;;;;;4998247;23;20506;-49
2021/10/23 11:53:17;;;;;;;6.90;1.47;;;12.30;99.90;;;;;;4976546;29;20499;-48
2021/10/23 11:55:45;;;;;;;2.37;1.20;;;12.20;99.90;;;;;;4979332;28;20463;-52
2021/10/23 11:58:14;;;;;;;7.30;1.20;;;12.10;99.90;;;;;;4980207;29;20471;-51
2021/10/23 12:00:43;;;;;;;4.20;1.23;;;12.00;99.90;;;;;;4979977;29;20448;-53
2021/10/23 12:03:13;;;;;;;2.90;1.30;;;11.90;99.90;;;;;;4980401;28;20460;-44
2021/10/23 12:05:49;;;;;;;10.43;1.70;;;11.80;99.90;;;;;;4980444;29;20436;-50
2021/10/23 12:08:22;;;;;;;4.47;1.40;;;11.80;99.90;;;;;;4979578;29;20478;-53
2021/10/23 12:11:19;;;;;;;9.43;1.00;;;11.80;99.90;;;;;;4979916;28;20444;-49
2021/10/23 12:13:52;;;;;;;5.87;1.90;;;11.90;99.90;;;;;;4979329;29;20431;-53
2021/10/23 12:16:28;;;;;;;4.10;1.40;;;12.00;99.90;;;;;;4979819;29;20506;-47
2021/10/23 12:19:01;;;;;;;4.70;1.93;;;12.00;99.90;;;;;;4979690;29;20436;-51
2021/10/23 12:21:36;;;;;;;4.00;1.73;;;12.00;99.90;;;;;;4980139;29;20480;-50
2021/10/23 12:24:14;;;;;;;7.63;1.53;;;12.00;99.90;;;;;;4979649;29;20440;-52
2021/10/23 12:26:41;;;;;;;3.63;1.80;;;12.10;99.90;;;;;;4979610;28;20464;-47
2021/10/23 12:29:10;;;;;;;4.30;1.27;;;12.10;99.90;;;;;;4979519;29;20408;-46
2021/10/23 12:32:00;;;;;;;5.53;1.53;;;12.10;99.90;;;;;;4979350;29;20456;-51
2021/10/23 12:34:29;;;;;;;6.13;1.30;;;12.00;99.90;;;;;;4979069;29;20475;-50
2021/10/23 12:36:57;;;;;;;7.80;1.80;;;12.00;99.90;;;;;;4979234;29;20451;-52
2021/10/23 12:39:26;;;;;;;9.30;1.50;;;12.20;99.90;;;;;;4979258;29;20436;-50
2021/10/23 12:41:54;;;;;;;14.13;1.53;;;12.30;99.90;;;;;;4979077;29;20444;-48
2021/10/23 12:44:23;;;;;;;7.77;1.53;;;12.50;99.90;;;;;;4978795;29;20436;-50
2021/10/23 12:46:51;;;;;;;2.50;1.33;;;12.60;99.90;;;;;;4978517;28;20512;-49
2021/10/23 12:49:18;;;;;;;2.40;1.00;;;12.70;99.90;;;;;;4978517;29;20451;-49
2021/10/23 12:51:45;;;;;;;4.23;1.53;;;12.80;99.90;;;;;;4978485;29;20535;-51
2021/10/23 12:54:14;;;;;;;4.60;1.67;;;12.90;99.90;;;;;;4978488;29;20448;-50
2021/10/23 12:56:45;;;;;;;1.87;1.10;;;12.80;99.90;;;;;;4978599;29;20432;-53
2021/10/23 12:59:12;;;;;;;3.70;1.40;;;12.70;99.90;;;;;;4978741;29;20431;-52
2021/10/23 13:01:39;;;;;;;3.57;1.20;;;12.60;99.90;;;;;;4978373;29;20467;-51
2021/10/23 13:04:07;;;;;;;8.20;1.53;;;12.40;99.90;;;;;;4978893;29;20444;-47
2021/10/23 13:06:34;;;;;;;8.10;1.53;;;12.30;99.90;;;;;;4978682;28;20556;-50
2021/10/23 13:09:01;;;;;;;6.17;1.30;;;12.10;99.90;;;;;;4978993;29;20451;-48
2021/10/23 13:11:28;;;;;;;6.07;1.43;;;12.00;99.90;;;;;;4978433;29;20432;-49
2021/10/23 13:13:55;;;;;;;3.43;1.37;;;11.90;99.90;;;;;;4978711;29;20471;-52
2021/10/23 13:16:22;;;;;;;3.90;1.57;;;11.90;99.90;;;;;;4978548;29;20508;-49
2021/10/23 13:18:49;;;;;;;3.23;1.30;;;11.80;99.90;;;;;;4978218;28;20455;-51
2021/10/23 13:21:16;;;;;;;3.37;1.10;;;11.80;99.90;;;;;;4978850;29;20428;-48
2021/10/23 13:23:45;;;;;;;3.80;1.57;;;11.80;99.90;;;;;;4978168;29;20448;-55
2021/10/23 13:26:12;;;;;;;6.10;1.60;;;11.80;99.90;;;;;;4978277;29;20460;-53
2021/10/23 13:28:43;;;;;;;7.00;1.80;;;11.70;99.90;;;;;;4978149;29;20518;-49
2021/10/23 13:31:13;;;;;;;4.20;1.30;;;11.80;99.90;;;;;;4978204;29;20436;-49
2021/10/23 13:33:42;;;;;;;3.33;2.00;;;11.90;99.90;;;;;;4977749;28;20460;-47